Airfield :
LOGIN :

Register | Disclaimer

   EN    FR    IT 

 










Legend :    VFR   Marginal VFR   IFR   Intensive IFR   Very Intensive IFR
Visi :
Ceiling :
>= 8 km
>= 3000ft
5 to 8 km
1000 to 3000 ft
1500m to 5 km
500 to 1000 ft
800 to 1500m
200 to 500 ft
< 800m
< 200 ft
Symbols :   Thunderstorms  Fog  Heavy snow  Heavy precipitations  Wind > 20 kt
SIGMETs :     Misc.  Thunderstorms  Icing  Turbulence  Mountain Waves  Volcanic Ashes






- Airport Elevation : 200 ft


EBBL - Klein Brogel AB

CURRENT METAR :
  • 210525Z AUTO 07005KT 3800 BR BKN003/// M01/M02 Q1010 YLO

EXPIRED METARs :
  • 210455Z AUTO 07004KT 3800 BR BKN005/// M02/M02 Q1010 YLO
  • 210425Z AUTO 07003KT 4000 BR OVC006/// M02/M02 Q1010 YLO
  • 210355Z AUTO 07003KT 2400 BR FEW006/// M02/M02 Q1011 YLO
  • 210342Z AUTO 06003KT 3600 BR NCD M01/M02 Q1011 YLO
  • 210325Z AUTO 07004KT 4400 BR NCD M01/M02 Q1010 GRN
  • 210255Z AUTO VRB02KT 4300 BR NCD M02/M02 Q1011 GRN
  • 210225Z AUTO 08003KT 4300 BR NCD M01/M02 Q1011 GRN

TAF TAF EBBL
Valid from the 20 at 19:00 until the 21 at 07:00 UTC


201541Z 2019/2107 10005KT 9999 FEW015 SCT025
TEMPO 2019/2020 FEW012 BKN020
BECMG 2023/2101 8000 FEW003 SCT015
TEMPO 2023/2102 4000 SCT010
PROB40
TEMPO 2102/2107 1600 BR BCFG SCT003



MET'MAP, your aeronautical weather chart ! - Copyright ORBIFLY December 2007 - Disclaimer

ORBIFLY MET'MAP TEAM :

Programming & Development : Alexandra Zaïnal
Concept & Development : Baudouin d'Aumeries
Co-Development & Prog : Marc-Olivier Méhu
Technical & hardware support : Manuel Goepfert

Contact : metmap@orbifly.com




SOURCES & CREDITS :

   NOAA